Flight Track Log - Related Links

Times and Time Zones

All times are in EST time to prevent confusion due to time zone crossing. See the FFT933 flight status page for this flight to view local times or setup timezone preferences in your user account.

Time Position Orientation Groundspeed Altitude Reporting Facility
EST Latitude Longitude Course Direction KTS MPH feet Rate Location/Type
Fri 08:06:54 AM 40.2030 -74.8960 196° South 263 303 3,800  Level FlightAware ADS-B
Fri 08:07:27 AM 40.1610 -74.9070 191° South 276 318 5,700 2,466 Climbing FlightAware ADS-B
Fri 08:08:07 AM 40.1140 -74.9200 192° South 280 322 6,800 947 Climbing FlightAware ADS-B
Fri 08:08:43 AM 40.0670 -74.9330 192° South 282 325 6,900 86 Climbing FlightAware ADS-B
Fri 08:09:17 AM 40.0220 -74.9460 192° South 282 325 6,900  Level FlightAware ADS-B
Fri 08:09:56 AM 39.9710 -74.9590 191° South 283 326 6,900  Level FlightAware ADS-B
Fri 08:10:32 AM 39.9270 -74.9710 192° South 281 323 6,900 771 Level FlightAware ADS-B
Fri 08:11:06 AM 39.8960 -75.0050 220° Southwest 253 291 7,800 2,100 Climbing FlightAware ADS-B
Fri 08:11:52 AM 39.8970 -75.0690 271° West 250 288 9,700 1,739 Climbing FlightAware ADS-B
Fri 08:12:15 AM 39.8990 -75.1050 274° West 251 289 9,800 135 Climbing FlightAware ADS-B
Fri 08:13:21 AM 39.8910 -75.2030 264° West 255 293 9,900 61 Climbing FlightAware ADS-B
Fri 08:13:53 AM 39.8870 -75.2560 264° West 254 292 9,900  Level FlightAware ADS-B
Fri 08:14:21 AM 39.8830 -75.2950 262° West 253 291 9,900  Level FlightAware ADS-B
Fri 08:14:58 AM 39.8780 -75.3560 264° West 254 292 9,900  Level FlightAware ADS-B
Fri 08:15:32 AM 39.8730 -75.4090 263° West 256 295 9,900  Level FlightAware ADS-B
Fri 08:16:21 AM 39.8670 -75.4770 263° West 255 293 9,900 -64 Level FlightAware ADS-B
Fri 08:17:06 AM 39.8600 -75.5540 263° West 284 327 9,800  Descending FlightAware ADS-B
Fri 08:17:58 AM 39.8530 -75.6380 264° West 287 330 9,900 63 Climbing FlightAware ADS-B
Fri 08:18:41 AM 39.8460 -75.7180 264° West 290 334 9,900 867 Level FlightAware ADS-B
Fri 08:19:21 AM 39.8300 -75.7840 252° West 295 339 11,100 2,329 Climbing FlightAware ADS-B
Fri 08:20:06 AM 39.8090 -75.8630 251° West 310 357 13,200 3,000 Climbing FlightAware ADS-B
Fri 08:20:35 AM 39.7940 -75.9150 249° West 315 362 14,800 3,205 Climbing FlightAware ADS-B
Fri 08:21:19 AM 39.7730 -75.9920 250° West 312 359 17,100 3,103 Climbing FlightAware ADS-B
Fri 08:22:02 AM 39.7530 -76.0660 251° West 305 351 19,300 2,661 Climbing FlightAware ADS-B
Fri 08:23:14 AM 39.7180 -76.1910 250° West 313 360 22,200 2,202 Climbing FlightAware ADS-B
Fri 08:23:51 AM 39.6990 -76.2590 250° West 323 372 23,300 1,950 Climbing FlightAware ADS-B
Fri 08:24:34 AM 39.6940 -76.3380 265° West 321 369 24,800 1,977 Climbing FlightAware ADS-B
Fri 08:25:19 AM 39.6920 -76.4260 268° West 327 376 26,200 1,553 Climbing FlightAware ADS-B
Fri 08:25:59 AM 39.6910 -76.5070 269° West 328 377 27,000 911 Climbing FlightAware ADS-B
Fri 08:26:38 AM 39.6890 -76.5790 268° West 331 381 27,400 1,308 Climbing FlightAware ADS-B
Fri 08:27:17 AM 39.6870 -76.6580 268° West 329 379 28,700 1,652 Climbing FlightAware ADS-B
Fri 08:27:47 AM 39.6840 -76.7220 267° West 343 395 29,300 1,215 Climbing FlightAware ADS-B
Fri 08:28:36 AM 39.6580 -76.8190 251° West 354 407 30,300 1,213 Climbing FlightAware ADS-B
Fri 08:29:21 AM 39.6170 -76.8950 235° Southwest 372 428 31,200 1,500 Climbing FlightAware ADS-B
Fri 08:29:52 AM 39.5790 -76.9490 228° Southwest 370 426 32,200 1,775 Climbing FlightAware ADS-B
Fri 08:30:32 AM 39.5320 -77.0110 226° Southwest 364 419 33,300 1,185 Climbing FlightAware ADS-B
Fri 08:31:13 AM 39.4850 -77.0750 226° Southwest 376 433 33,800 1,200 Climbing FlightAware ADS-B
Fri 08:31:52 AM 39.4350 -77.1410 226° Southwest 373 429 34,900 1,726 Climbing FlightAware ADS-B
Fri 08:32:26 AM 39.3950 -77.1940 226° Southwest 364 419 35,900 1,256 Climbing FlightAware ADS-B
Fri 08:33:18 AM 39.3380 -77.2680 225° Southwest 365 420 36,700 933 Climbing FlightAware ADS-B
Fri 08:33:56 AM 39.2880 -77.3340 226° Southwest 368 423 37,300 740 Climbing FlightAware ADS-B
Fri 08:34:31 AM 39.2480 -77.3870 226° Southwest 374 430 37,600 480 Climbing FlightAware ADS-B
Fri 08:35:11 AM 39.1970 -77.4540 226° Southwest 380 437 37,900 276 Climbing FlightAware ADS-B
Fri 08:35:58 AM 39.1400 -77.5280 225° Southwest 375 432 38,000 54 Climbing FlightAware ADS-B
Fri 08:37:03 AM 39.0610 -77.6310 225° Southwest 372 428 38,000  Level FlightAware ADS-B
Fri 08:37:42 AM 39.0140 -77.6910 225° Southwest 368 423 38,000  Level FlightAware ADS-B
Fri 08:38:24 AM 38.9650 -77.7550 225° Southwest 361 415 38,000  Level FlightAware ADS-B
Fri 08:39:03 AM 38.9200 -77.8150 226° Southwest 356 410 38,000  Level FlightAware ADS-B
Fri 08:39:40 AM 38.8780 -77.8690 225° Southwest 358 412 38,000  Level FlightAware ADS-B
Fri 08:40:23 AM 38.8240 -77.9380 225° Southwest 369 425 38,000  Level FlightAware ADS-B
Fri 08:41:05 AM 38.7730 -78.0040 225° Southwest 373 429 38,000  Level FlightAware ADS-B
Fri 08:41:41 AM 38.7290 -78.0610 225° Southwest 373 429 38,000  Level FlightAware ADS-B
Fri 08:42:23 AM 38.6790 -78.1250 225° Southwest 367 422 38,000  Level FlightAware ADS-B
Fri 08:43:08 AM 38.6250 -78.1930 225° Southwest 364 419 38,000  Level FlightAware ADS-B
Fri 08:43:41 AM 38.5860 -78.2440 226° Southwest 364 419 38,000  Level FlightAware ADS-B
Fri 08:44:11 AM 38.5510 -78.2880 225° Southwest 364 419 38,000  Level FlightAware ADS-B
Fri 08:44:45 AM 38.5090 -78.3410 225° Southwest 365 420 38,000  Level FlightAware ADS-B
Fri 08:45:18 AM 38.4700 -78.3910 225° Southwest 366 421 38,000  Level FlightAware ADS-B
Fri 08:45:48 AM 38.4340 -78.4370 225° Southwest 366 421 38,000  Level FlightAware ADS-B
Fri 08:46:25 AM 38.3900 -78.4930 225° Southwest 368 423 38,000  Level FlightAware ADS-B
Fri 08:47:08 AM 38.3380 -78.5590 225° Southwest 368 423 38,000 53 Level FlightAware ADS-B
Fri 08:48:18 AM 38.2550 -78.6630 225° Southwest 369 425 38,100  Climbing FlightAware ADS-B
Fri 08:48:59 AM 38.2030 -78.7280 224° Southwest 369 425 38,000 -76 Descending FlightAware ADS-B
Fri 08:49:37 AM 38.1580 -78.7850 225° Southwest 367 422 38,000  Level FlightAware ADS-B
Fri 08:50:17 AM 38.1140 -78.8410 225° Southwest 364 419 38,000  Level FlightAware ADS-B
Fri 08:51:05 AM 38.0530 -78.9170 224° Southwest 359 413 38,000  Level FlightAware ADS-B
Fri 08:51:31 AM 38.0220 -78.9560 225° Southwest 359 413 38,000  Level FlightAware ADS-B
Fri 08:52:06 AM 37.9810 -79.0060 224° Southwest 357 411 38,000  Level FlightAware ADS-B
Fri 08:52:39 AM 37.9410 -79.0560 225° Southwest 355 409 38,000  Level FlightAware ADS-B
Fri 08:53:05 AM 37.9170 -79.0870 226° Southwest 38,000  Level FlightAware ADS-B
Fri 08:53:57 AM 37.8640 -79.1580 227° Southwest 343 395 38,000  Level FlightAware ADS-B
Fri 08:54:27 AM 37.8240 -79.2140 228° Southwest 343 395 38,000  Level FlightAware ADS-B
Fri 08:55:06 AM 37.7790 -79.2750 227° Southwest 345 397 38,000  Level FlightAware ADS-B
Fri 08:55:41 AM 37.7440 -79.3240 228° Southwest 347 399 38,000  Level FlightAware ADS-B
Fri 08:56:12 AM 37.7090 -79.3730 228° Southwest 355 409 38,000  Level FlightAware ADS-B
Fri 08:56:55 AM 37.6600 -79.4410 228° Southwest 356 410 38,000  Level FlightAware ADS-B
Fri 08:57:39 AM 37.6110 -79.5090 228° Southwest 358 412 38,000 82 Level FlightAware ADS-B
Fri 08:58:08 AM 37.5770 -79.5550 227° Southwest 361 415 38,100 78 Climbing FlightAware ADS-B
Fri 08:58:56 AM 37.5220 -79.6310 228° Southwest 363 418 38,100  Level FlightAware ADS-B
Fri 08:59:35 AM 37.4780 -79.6910 227° Southwest 363 418 38,100 -72 Level FlightAware ADS-B
Fri 09:00:19 AM 37.4290 -79.7590 228° Southwest 364 419 38,000 -72 Descending FlightAware ADS-B
Fri 09:00:58 AM 37.3840 -79.8200 227° Southwest 365 420 38,000  Level FlightAware ADS-B
Fri 09:01:35 AM 37.3420 -79.8770 227° Southwest 365 420 38,000  Level FlightAware ADS-B
Fri 09:02:35 AM 37.2740 -79.9690 227° Southwest 365 420 38,000  Level FlightAware ADS-B
Fri 09:03:11 AM 37.2310 -80.0290 228° Southwest 365 420 38,000  Level FlightAware ADS-B
Fri 09:03:51 AM 37.1860 -80.0890 227° Southwest 367 422 38,000  Level FlightAware ADS-B
Fri 09:04:29 AM 37.1430 -80.1460 227° Southwest 366 421 38,000  Level FlightAware ADS-B
Fri 09:05:09 AM 37.0960 -80.2110 228° Southwest 367 422 38,000  Level FlightAware ADS-B
Fri 09:05:41 AM 37.0580 -80.2620 227° Southwest 368 423 38,000  Level FlightAware ADS-B
Fri 09:06:13 AM 37.0220 -80.3100 227° Southwest 369 425 38,000  Level FlightAware ADS-B
Fri 09:06:50 AM 36.9790 -80.3690 228° Southwest 369 425 38,000  Level FlightAware ADS-B
Fri 09:07:30 AM 36.9310 -80.4320 226° Southwest 369 425 38,000  Level FlightAware ADS-B
Fri 09:08:09 AM 36.8860 -80.4930 227° Southwest 372 428 38,000  Level FlightAware ADS-B
Fri 09:08:47 AM 36.8400 -80.5540 227° Southwest 374 430 38,000  Level FlightAware ADS-B
Fri 09:09:57 AM 36.7590 -80.6620 227° Southwest 374 430 38,000  Level FlightAware ADS-B
Fri 09:10:28 AM 36.7260 -80.7060 227° Southwest 372 428 38,000  Level FlightAware ADS-B
Fri 09:10:58 AM 36.6860 -80.7580 226° Southwest 372 428 38,000  Level FlightAware ADS-B
Fri 09:11:39 AM 36.6510 -80.8060 228° Southwest 371 427 38,000  Level FlightAware ADS-B
Fri 09:12:11 AM 36.6030 -80.8700 227° Southwest 370 426 38,000  Level FlightAware ADS-B
Fri 09:12:50 AM 36.5570 -80.9300 226° Southwest 372 428 38,000  Level FlightAware ADS-B
Fri 09:13:25 AM 36.5160 -80.9840 227° Southwest 376 433 38,000  Level FlightAware ADS-B
Fri 09:14:02 AM 36.4720 -81.0420 227° Southwest 379 436 38,000 77 Level FlightAware ADS-B
Fri 09:14:43 AM 36.4220 -81.1070 226° Southwest 379 436 38,100 77 Climbing FlightAware ADS-B
Fri 09:15:20 AM 36.3770 -81.1660 227° Southwest 379 436 38,100  Level FlightAware ADS-B
Fri 09:15:58 AM 36.3300 -81.2280 227° Southwest 377 434 38,100 -79 Level FlightAware ADS-B
Fri 09:16:36 AM 36.2860 -81.2850 226° Southwest 375 432 38,000 -81 Descending FlightAware ADS-B
Fri 09:17:12 AM 36.2420 -81.3430 227° Southwest 372 428 38,000  Level FlightAware ADS-B
Fri 09:17:48 AM 36.2020 -81.3950 226° Southwest 371 427 38,000  Level FlightAware ADS-B
Fri 09:18:26 AM 36.1560 -81.4550 226° Southwest 370 426 38,000  Level FlightAware ADS-B
Fri 09:19:03 AM 36.1120 -81.5110 226° Southwest 369 425 38,000  Level FlightAware ADS-B
Fri 09:19:43 AM 36.0660 -81.5720 227° Southwest 372 428 38,000  Level FlightAware ADS-B
Fri 09:20:10 AM 36.0380 -81.6070 225° Southwest 373 429 38,000  Level FlightAware ADS-B
Fri 09:20:58 AM 35.9760 -81.6870 226° Southwest 374 430 38,000  Level FlightAware ADS-B
Fri 09:21:37 AM 35.9260 -81.7510 226° Southwest 374 430 38,000  Level FlightAware ADS-B
Fri 09:22:07 AM 35.8930 -81.7950 227° Southwest 374 430 38,000 -77 Level FlightAware ADS-B
Fri 09:22:55 AM 35.8350 -81.8680 226° Southwest 376 433 37,900 -353 Descending FlightAware ADS-B
Fri 09:23:32 AM 35.7870 -81.9300 226° Southwest 379 436 37,500 -649 Descending FlightAware ADS-B
Fri 09:24:09 AM 35.7440 -81.9850 226° Southwest 386 444 37,100 -696 Descending FlightAware ADS-B
Fri 09:25:24 AM 35.6510 -82.1030 226° Southwest 381 438 36,200 -692 Descending FlightAware ADS-B
Fri 09:25:53 AM 35.6140 -82.1500 226° Southwest 375 432 35,900 -635 Descending FlightAware ADS-B
Fri 09:26:49 AM 35.5490 -82.2330 226° Southwest 370 426 35,300 -600 Descending FlightAware ADS-B
Fri 09:27:23 AM 35.5060 -82.2880 226° Southwest 377 434 35,000 -231 Descending FlightAware ADS-B
Fri 09:28:07 AM 35.4530 -82.3540 225° Southwest 373 429 35,000  Level FlightAware ADS-B
Fri 09:28:55 AM 35.3960 -82.4260 226° Southwest 372 428 35,000  Level FlightAware ADS-B
Fri 09:29:29 AM 35.3550 -82.4790 227° Southwest 374 430 35,000  Level FlightAware ADS-B
Fri 09:30:05 AM 35.3130 -82.5310 225° Southwest 373 429 35,000  Level FlightAware ADS-B
Fri 09:30:38 AM 35.2720 -82.5830 226° Southwest 369 425 35,000 94 Level FlightAware ADS-B
Fri 09:31:09 AM 35.2350 -82.6290 225° Southwest 370 426 35,100 -441 Climbing FlightAware ADS-B
Fri 09:31:46 AM 35.1890 -82.6840 224° Southwest 384 442 34,500 -943 Descending FlightAware ADS-B
Fri 09:32:19 AM 35.1510 -82.7250 221° Southwest 388 447 34,000 -1,000 Descending FlightAware ADS-B
Fri 09:32:58 AM 35.0910 -82.7900 222° Southwest 394 453 33,300 -1,037 Descending FlightAware ADS-B
Fri 09:33:40 AM 35.0340 -82.8500 221° Southwest 398 458 32,600 -990 Descending FlightAware ADS-B
Fri 09:34:35 AM 34.9550 -82.9330 221° Southwest 403 464 31,700 -957 Descending FlightAware ADS-B
Fri 09:35:14 AM 34.9050 -82.9870 222° Southwest 406 467 31,100 -986 Descending FlightAware ADS-B
Fri 09:35:48 AM 34.8540 -83.0410 221° Southwest 409 471 30,500 -943 Descending FlightAware ADS-B
Fri 09:36:24 AM 34.8040 -83.0940 221° Southwest 413 475 30,000 -1,105 Descending FlightAware ADS-B
Fri 09:37:04 AM 34.7430 -83.1580 221° Southwest 418 481 29,100 -1,390 Descending FlightAware ADS-B
Fri 09:37:46 AM 34.6820 -83.2230 221° Southwest 421 484 28,100 -795 Descending FlightAware ADS-B
Fri 09:38:27 AM 34.6210 -83.2880 221° Southwest 433 498 28,000 -532 Descending FlightAware ADS-B
Fri 09:39:05 AM 34.5630 -83.3480 220° Southwest 424 488 27,400 -2,100 Descending FlightAware ADS-B
Fri 09:39:47 AM 34.5020 -83.4120 221° Southwest 427 491 25,200 -4,235 Descending FlightAware ADS-B
Fri 09:40:30 AM 34.4360 -83.4810 221° Southwest 440 506 21,400 -4,605 Descending FlightAware ADS-B
Fri 09:41:13 AM 34.3710 -83.5490 221° Southwest 436 502 18,600 -3,578 Descending FlightAware ADS-B
Fri 09:42:19 AM 34.2730 -83.6510 221° Southwest 419 482 14,900 -2,786 Descending FlightAware ADS-B
Fri 09:43:05 AM 34.2050 -83.7210 220° Southwest 386 444 13,400 -1,404 Descending FlightAware ADS-B
Fri 09:43:53 AM 34.1440 -83.7850 221° Southwest 339 390 12,700 -1,129 Descending FlightAware ADS-B
Fri 09:44:30 AM 34.1010 -83.8290 220° Southwest 324 373 11,800 -741 Descending FlightAware ADS-B
Fri 09:45:14 AM 34.0620 -83.8810 228° Southwest 290 334 11,700 -970 Descending FlightAware ADS-B
Fri 09:46:09 AM 34.0150 -83.9490 230° Southwest 289 333 10,200 -1,705 Descending FlightAware ADS-B
Fri 09:46:49 AM 33.9710 -83.9890 217° Southwest 304 350 9,000 -1,184 Descending FlightAware ADS-B
Fri 09:47:25 AM 33.9200 -83.9840 175° South 304 350 8,700 -237 Descending FlightAware ADS-B
Fri 09:48:05 AM 33.8630 -83.9750 173° South 306 352 8,700  Level FlightAware ADS-B
Fri 09:48:37 AM 33.8190 -83.9680 172° South 305 351 8,700 -171 Level FlightAware ADS-B
Fri 09:49:15 AM 33.7680 -83.9600 173° South 270 311 8,500 -623 Descending FlightAware ADS-B
Fri 09:49:54 AM 33.7210 -83.9520 172° South 258 297 7,900 -1,125 Descending FlightAware ADS-B
Fri 09:50:35 AM 33.6720 -83.9470 175° South 256 295 7,000 -783 Descending FlightAware ADS-B
Fri 09:51:26 AM 33.6360 -83.9920 226° Southwest 237 273 6,700 -194 Descending FlightAware ADS-B
Fri 09:52:08 AM 33.6320 -84.0430 265° West 219 252 6,700 -214 Level FlightAware ADS-B
Fri 09:52:50 AM 33.6310 -84.0940 269° West 216 249 6,400 -968 Descending FlightAware ADS-B
Fri 09:53:10 AM 33.6320 -84.1200 273° West 230 265 5,700 -1,652 Descending FlightAware ADS-B
Fri 09:53:59 AM 33.6320 -84.1830 270° West 224 258 4,500 -1,390 Descending FlightAware ADS-B
Fri 09:54:32 AM 33.6320 -84.2210 270° West 215 247 3,800 -1,157 Descending FlightAware ADS-B
Fri 09:55:22 AM 33.6320 -84.2780 270° West 198 228 2,900 -1,055 Descending FlightAware ADS-B
Fri 09:56:03 AM 33.6320 -84.3230 270° West 196 226 2,200 -1,000 Descending FlightAware ADS-B
Fri 09:56:40 AM 33.6320 -84.3610 270° West 172 198 1,600 -571 Descending FlightAware ADS-B
Fri 09:57:06 AM 33.6320 -84.3820 270° West 172 198 1,600 -565 Level FlightAware ADS-B
Fri 09:58:05 AM 33.6320 -84.4250 270° West 134 154 800 -814 Descending FlightAware ADS-B

Login

Don't have an account? Register now (free) for customized features, flight alerts, and more!